createdAt,value
2024-02-23T00:02:15.677Z,97547.59
2024-02-23T00:04:48.717Z,97543.81
2024-02-23T00:07:18.451Z,97537.31
2024-02-23T00:09:48.386Z,97555.94
2024-02-23T00:12:18.244Z,97569.69
2024-02-23T00:14:47.939Z,97573.78
2024-02-23T00:17:18.010Z,97578.84
2024-02-23T00:19:54.127Z,97577.41
2024-02-23T00:22:23.956Z,97585.78
2024-02-23T00:24:53.612Z,97603.31
2024-02-23T00:27:23.372Z,97597.28
2024-02-23T00:29:53.102Z,97623.34
2024-02-23T00:32:23.067Z,97601.06
2024-02-23T00:34:55.467Z,97609.91
2024-02-23T00:37:25.445Z,97618.06
2024-02-23T00:39:55.277Z,97613.63
2024-02-23T00:42:25.119Z,97633.19
2024-02-23T00:44:54.782Z,97624.19
2024-02-23T00:47:24.558Z,97625.94
2024-02-23T00:49:56.892Z,97616.00
2024-02-23T00:52:26.722Z,97611.41
2024-02-23T00:54:56.383Z,97656.06
2024-02-23T00:57:31.194Z,97634.59
2024-02-23T01:00:01.356Z,97675.09
2024-02-23T01:02:31.101Z,97671.44
2024-02-23T01:05:03.868Z,97678.72
2024-02-23T01:07:33.969Z,97664.91
2024-02-23T01:10:05.042Z,97694.66
2024-02-23T01:12:34.778Z,97686.38
2024-02-23T01:15:05.979Z,97690.06
2024-02-23T01:17:36.236Z,97684.09
2024-02-23T01:20:09.978Z,97692.81
2024-02-23T01:22:39.767Z,97682.13
2024-02-23T01:25:10.282Z,97710.81
2024-02-23T01:27:39.868Z,97713.34
2024-02-23T01:30:11.001Z,97709.78
2024-02-23T01:32:40.783Z,97724.19
2024-02-23T01:35:13.534Z,97754.09
2024-02-23T01:37:43.384Z,97790.72
2024-02-23T01:40:13.783Z,97835.22
2024-02-23T01:42:43.536Z,97833.78
2024-02-23T01:45:13.489Z,97850.06
2024-02-23T01:47:43.330Z,97851.34
2024-02-23T01:50:16.017Z,97845.41
2024-02-23T01:52:45.755Z,97875.53
2024-02-23T01:55:15.686Z,97875.53
2024-02-23T01:57:50.247Z,97894.56
2024-02-23T02:00:22.361Z,97901.72
2024-02-23T02:02:52.562Z,97915.88
2024-02-23T02:05:25.062Z,97923.78
2024-02-23T02:08:00.554Z,97923.31
2024-02-23T02:10:30.414Z,97934.78
2024-02-23T02:13:06.863Z,97951.25
2024-02-23T02:15:36.767Z,97960.16
2024-02-23T02:18:06.590Z,97955.81
2024-02-23T02:20:40.742Z,97959.34
2024-02-23T02:23:12.209Z,97966.25
2024-02-23T02:25:41.892Z,97978.38
2024-02-23T02:28:11.677Z,97982.94
2024-02-23T02:30:41.854Z,97987.88
2024-02-23T02:33:11.698Z,97984.28
2024-02-23T02:35:44.016Z,97989.78
2024-02-23T02:38:15.077Z,98005.38
2024-02-23T02:40:44.943Z,98008.16
2024-02-23T02:43:14.819Z,98019.59
2024-02-23T02:45:45.156Z,98049.81
2024-02-23T02:48:15.050Z,98060.59
2024-02-23T02:50:48.442Z,98078.66
2024-02-23T02:53:19.206Z,98096.41
2024-02-23T02:55:49.143Z,98101.34
2024-02-23T02:58:18.969Z,98119.56
2024-02-23T03:00:48.757Z,98122.47
2024-02-23T03:03:18.534Z,98142.88
2024-02-23T03:05:51.009Z,98129.19
2024-02-23T03:08:21.121Z,98138.63
2024-02-23T03:10:50.989Z,98132.50
2024-02-23T03:13:20.763Z,98136.41
2024-02-23T03:15:50.507Z,98147.88
2024-02-23T03:18:20.250Z,98158.06
2024-02-23T03:20:52.735Z,98155.28
2024-02-23T03:23:22.586Z,98162.19
2024-02-23T03:25:52.604Z,98168.38
2024-02-23T03:28:22.505Z,98171.53
2024-02-23T03:30:52.296Z,98197.75
2024-02-23T03:33:22.053Z,98188.28
2024-02-23T03:35:54.419Z,98202.38
2024-02-23T03:38:24.202Z,98203.00
2024-02-23T03:40:55.231Z,98200.09
2024-02-23T03:43:25.027Z,98216.50
2024-02-23T03:45:54.923Z,98212.59
2024-02-23T03:48:24.781Z,98236.38
2024-02-23T03:50:57.368Z,98246.84
2024-02-23T03:53:27.152Z,98229.06
2024-02-23T03:55:57.026Z,98236.19
2024-02-23T03:58:26.755Z,98249.50
2024-02-23T04:00:56.594Z,98251.16
2024-02-23T04:03:26.404Z,98248.94
2024-02-23T04:05:58.777Z,98252.94
2024-02-23T04:08:28.554Z,98256.00
2024-02-23T04:10:58.969Z,98271.50
2024-02-23T04:13:28.834Z,98274.59
2024-02-23T04:15:58.835Z,98279.69
2024-02-23T04:18:28.771Z,98290.44
2024-02-23T04:21:01.008Z,98296.38
2024-02-23T04:23:30.756Z,98297.13
2024-02-23T04:26:00.620Z,98299.41
2024-02-23T04:28:32.211Z,98302.31
2024-02-23T04:31:01.975Z,98303.91
2024-02-23T04:33:31.865Z,98301.31
2024-02-23T04:36:04.364Z,98305.19
2024-02-23T04:38:34.290Z,98305.56
2024-02-23T04:41:07.113Z,98310.06
2024-02-23T04:43:37.066Z,98319.50
2024-02-23T04:46:07.380Z,98325.38
2024-02-23T04:48:37.549Z,98328.63
2024-02-23T04:51:11.138Z,98343.25
2024-02-23T04:53:41.311Z,98339.56
2024-02-23T04:56:11.117Z,98352.59
2024-02-23T04:58:42.527Z,98368.91
2024-02-23T05:01:12.451Z,98367.03
2024-02-23T05:03:42.282Z,98361.38
2024-02-23T05:06:14.857Z,98372.91
2024-02-23T05:08:44.878Z,98371.56
2024-02-23T05:11:14.693Z,98369.38
2024-02-23T05:13:44.537Z,98374.75
2024-02-23T05:16:18.158Z,98377.69
2024-02-23T05:18:47.962Z,98381.72
2024-02-23T05:21:21.486Z,98385.47
2024-02-23T05:23:51.223Z,98391.06
2024-02-23T05:26:21.684Z,98395.06
2024-02-23T05:28:51.462Z,98387.94
2024-02-23T05:31:21.216Z,98404.16
2024-02-23T05:33:50.968Z,98404.97
2024-02-23T05:36:23.298Z,98423.41
2024-02-23T05:38:53.632Z,98421.75
2024-02-23T05:41:23.283Z,98431.94
2024-02-23T05:43:53.030Z,98436.72
2024-02-23T05:46:22.789Z,98430.84
2024-02-23T05:48:52.520Z,98434.03
2024-02-23T05:51:24.977Z,98436.19
2024-02-23T05:53:54.641Z,98456.72
2024-02-23T05:56:25.141Z,98446.84
2024-02-23T05:58:55.530Z,98446.31
2024-02-23T06:01:25.303Z,98463.94
2024-02-23T06:03:56.420Z,98464.19
2024-02-23T06:06:28.862Z,98467.94
2024-02-23T06:08:58.686Z,98481.00
2024-02-23T06:11:29.586Z,98481.50
2024-02-23T06:13:59.939Z,98497.75
2024-02-23T06:16:29.705Z,98491.91
2024-02-23T06:18:59.645Z,98504.47
2024-02-23T06:21:33.038Z,98515.94
2024-02-23T06:24:03.952Z,98511.94
2024-02-23T06:26:33.909Z,98526.84
2024-02-23T06:29:05.090Z,98523.38
2024-02-23T06:31:35.827Z,98523.69
2024-02-23T06:34:05.770Z,98530.59
2024-02-23T06:36:38.726Z,98526.59
2024-02-23T06:39:08.458Z,98523.69
2024-02-23T06:41:40.193Z,98526.88
2024-02-23T06:44:09.930Z,98528.47
2024-02-23T06:46:39.695Z,98528.19
2024-02-23T06:49:09.456Z,98527.13
2024-02-23T06:51:42.142Z,98533.53
2024-02-23T06:54:12.195Z,98536.72
2024-02-23T06:56:41.934Z,98539.94
2024-02-23T06:59:11.712Z,98542.59
2024-02-23T07:01:51.931Z,98546.34
2024-02-23T07:04:22.187Z,98545.78
2024-02-23T07:06:54.539Z,98562.88
2024-02-23T07:09:24.327Z,98573.00
2024-02-23T07:11:54.160Z,98563.38
2024-02-23T07:14:24.041Z,98568.19
2024-02-23T07:16:53.861Z,98585.25
2024-02-23T07:19:23.976Z,98574.59
2024-02-23T07:21:56.359Z,98586.88
2024-02-23T07:24:26.060Z,98591.69
2024-02-23T07:26:55.788Z,98597.78
2024-02-23T07:29:25.633Z,98598.34
2024-02-23T07:31:55.250Z,98599.38
2024-02-23T07:34:25.302Z,98615.44
2024-02-23T07:36:58.510Z,98607.69
2024-02-23T07:39:28.515Z,98615.16
2024-02-23T07:41:58.255Z,98614.09
2024-02-23T07:44:28.591Z,98621.03
2024-02-23T07:46:59.737Z,98619.72
2024-02-23T07:49:29.678Z,98627.44
2024-02-23T07:52:02.010Z,98626.38
2024-02-23T07:54:31.696Z,98617.81
2024-02-23T07:57:01.368Z,98623.72
2024-02-23T07:59:31.718Z,98640.78
2024-02-23T08:02:01.958Z,98644.78
2024-02-23T08:04:31.739Z,98638.13
2024-02-23T08:07:04.295Z,98645.03
2024-02-23T08:09:34.183Z,98652.75
2024-02-23T08:12:03.986Z,98653.81
2024-02-23T08:14:34.328Z,98650.63
2024-02-23T08:17:04.236Z,98657.25
2024-02-23T08:19:34.091Z,98653.53
2024-02-23T08:22:06.635Z,98648.97
2024-02-23T08:24:36.459Z,98652.72
2024-02-23T08:27:06.584Z,98663.53
2024-02-23T08:29:36.368Z,98661.44
2024-02-23T08:32:06.400Z,98659.00
2024-02-23T08:34:36.195Z,98672.88
2024-02-23T08:37:08.734Z,98677.44
2024-02-23T08:39:38.600Z,98691.53
2024-02-23T08:42:08.616Z,98691.50
2024-02-23T08:44:40.533Z,98698.22
2024-02-23T08:47:10.274Z,98695.56
2024-02-23T08:49:40.006Z,98711.38
2024-02-23T08:52:12.319Z,98701.47
2024-02-23T08:54:42.162Z,98705.44
2024-02-23T08:57:11.870Z,98710.22
2024-02-23T08:59:41.631Z,98711.50
2024-02-23T09:02:11.540Z,98723.72
2024-02-23T09:04:41.293Z,98716.53
2024-02-23T09:07:13.648Z,98739.44
2024-02-23T09:09:43.727Z,98726.22
2024-02-23T09:12:16.150Z,98725.50
2024-02-23T09:14:46.154Z,98720.31
2024-02-23T09:17:16.280Z,98736.69
2024-02-23T09:19:46.064Z,98738.22
2024-02-23T09:22:18.329Z,98738.84
2024-02-23T09:24:48.051Z,98735.78
2024-02-23T09:27:18.070Z,98745.16
2024-02-23T09:29:47.824Z,98745.91
2024-02-23T09:32:17.527Z,98740.03
2024-02-23T09:34:47.333Z,98750.25
2024-02-23T09:37:19.625Z,98747.56
2024-02-23T09:39:49.425Z,98766.28
2024-02-23T09:42:19.486Z,98771.91
2024-02-23T09:44:49.950Z,98747.34
2024-02-23T09:47:19.934Z,98762.75
2024-02-23T09:49:54.183Z,98770.41
2024-02-23T09:52:30.187Z,98760.09
2024-02-23T09:54:59.964Z,98768.34
2024-02-23T09:57:30.916Z,98778.28
2024-02-23T10:00:01.018Z,98799.41
2024-02-23T10:02:32.966Z,98800.09
2024-02-23T10:05:05.312Z,98806.38
2024-02-23T10:07:37.665Z,98812.66
2024-02-23T10:10:12.364Z,98824.44
2024-02-23T10:12:42.097Z,98835.13
2024-02-23T10:15:12.052Z,98830.50
2024-02-23T10:17:42.142Z,98830.91
2024-02-23T10:20:12.689Z,98829.06
2024-02-23T10:22:45.295Z,98837.16
2024-02-23T10:25:15.595Z,98836.84
2024-02-23T10:27:45.747Z,98825.22
2024-02-23T10:30:18.420Z,98839.00
2024-02-23T10:32:50.318Z,98836.84
2024-02-23T10:35:20.833Z,98844.88
2024-02-23T10:37:54.718Z,98837.75
2024-02-23T10:40:25.643Z,98857.97
2024-02-23T10:43:00.347Z,98849.91
2024-02-23T10:45:30.840Z,98856.34
2024-02-23T10:48:02.346Z,98852.34
2024-02-23T10:50:34.059Z,98848.91
2024-02-23T10:53:08.561Z,98855.09
2024-02-23T10:55:40.651Z,98855.16
2024-02-23T10:58:14.133Z,98854.34
2024-02-23T11:00:44.122Z,98849.59
2024-02-23T11:03:14.111Z,98855.44
2024-02-23T11:05:44.349Z,98859.72
2024-02-23T11:08:17.191Z,98857.53
2024-02-23T11:10:46.994Z,98859.75
2024-02-23T11:13:18.214Z,98867.81
2024-02-23T11:15:48.933Z,98868.94
2024-02-23T11:18:31.105Z,98849.28
2024-02-23T11:21:04.074Z,98856.19
2024-02-23T11:23:46.395Z,98860.75
2024-02-23T11:26:17.190Z,98860.56
2024-02-23T11:28:47.843Z,98848.38
2024-02-23T11:31:18.791Z,98865.72
2024-02-23T11:33:53.269Z,98854.03
2024-02-23T11:36:27.505Z,98864.78
2024-02-23T11:39:01.622Z,98870.47
2024-02-23T11:41:32.724Z,98854.88
2024-02-23T11:44:04.796Z,98858.25
2024-02-23T11:46:34.530Z,98851.75
2024-02-23T11:49:04.416Z,98849.41
2024-02-23T11:51:34.163Z,98858.53
2024-02-23T11:54:06.719Z,98865.41
2024-02-23T11:56:36.640Z,98857.94
2024-02-23T11:59:06.689Z,98861.94
2024-02-23T12:01:36.466Z,98866.03
2024-02-23T12:04:06.721Z,98860.97
2024-02-23T12:06:37.687Z,98864.41
2024-02-23T12:09:10.294Z,98873.25
2024-02-23T12:11:40.425Z,98861.94
2024-02-23T12:14:11.428Z,98874.28
2024-02-23T12:16:41.894Z,98867.25
2024-02-23T12:19:12.802Z,98861.31
2024-02-23T12:21:42.685Z,98862.69
2024-02-23T12:24:16.665Z,98866.50
2024-02-23T12:26:46.510Z,98871.53
2024-02-23T12:29:16.450Z,98871.91
2024-02-23T12:31:46.541Z,98868.31
2024-02-23T12:34:17.305Z,98860.50
2024-02-23T12:36:47.262Z,98862.41
2024-02-23T12:39:20.181Z,98863.75
2024-02-23T12:41:49.865Z,98868.34
2024-02-23T12:44:19.603Z,98886.47
2024-02-23T12:46:49.415Z,98874.09
2024-02-23T12:49:19.921Z,98867.00
2024-02-23T12:51:49.837Z,98864.94
2024-02-23T12:54:22.275Z,98862.06
2024-02-23T12:56:52.239Z,98868.75
2024-02-23T12:59:22.099Z,98872.53
2024-02-23T13:01:53.369Z,98859.66
2024-02-23T13:04:23.464Z,98873.00
2024-02-23T13:06:55.289Z,98874.41
2024-02-23T13:09:27.711Z,98865.13
2024-02-23T13:11:57.559Z,98871.25
2024-02-23T13:14:27.523Z,98881.41
2024-02-23T13:16:57.355Z,98884.41
2024-02-23T13:19:27.264Z,98890.31
2024-02-23T13:21:57.223Z,98897.25
2024-02-23T13:24:29.553Z,98892.16
2024-02-23T13:26:56.840Z,98910.38
2024-02-23T13:29:26.562Z,98902.63
2024-02-23T13:31:56.371Z,98906.09
2024-02-23T13:34:26.125Z,98904.41
2024-02-23T13:36:55.827Z,98904.50
2024-02-23T13:39:25.613Z,98907.66
2024-02-23T13:41:57.952Z,98909.31
2024-02-23T13:44:27.648Z,98909.56
2024-02-23T13:46:57.699Z,98913.81
2024-02-23T13:49:27.698Z,98914.16
2024-02-23T13:51:57.827Z,98916.75
2024-02-23T13:54:27.603Z,98918.16
2024-02-23T13:56:59.884Z,98906.91
2024-02-23T13:59:29.830Z,98913.84
2024-02-23T14:01:59.710Z,98913.56
2024-02-23T14:04:29.771Z,98923.53
2024-02-23T14:06:59.564Z,98909.00
2024-02-23T14:09:29.313Z,98911.09
2024-02-23T14:12:01.720Z,98924.53
2024-02-23T14:14:31.518Z,98919.94
2024-02-23T14:17:01.326Z,98919.16
2024-02-23T14:19:31.111Z,98913.84
2024-02-23T14:22:00.920Z,98914.41
2024-02-23T14:24:30.573Z,98918.38
2024-02-23T14:27:02.845Z,98916.47
2024-02-23T14:29:32.606Z,98914.63
2024-02-23T14:32:03.611Z,98917.81
2024-02-23T14:34:34.734Z,98915.19
2024-02-23T14:37:04.577Z,98914.59
2024-02-23T14:39:34.636Z,98912.75
2024-02-23T14:42:09.953Z,98919.47
2024-02-23T14:44:39.940Z,98918.66
2024-02-23T14:47:09.837Z,98915.91
2024-02-23T14:49:39.677Z,98921.81
2024-02-23T14:52:09.680Z,98929.38
2024-02-23T14:54:39.372Z,98917.56
2024-02-23T14:57:12.174Z,98930.66
2024-02-23T14:59:47.816Z,98932.28
2024-02-23T15:02:23.504Z,98942.97
2024-02-23T15:04:53.406Z,98939.53
2024-02-23T15:07:23.278Z,98934.06
2024-02-23T15:09:53.026Z,98927.38
2024-02-23T15:12:29.202Z,98924.16
2024-02-23T15:14:58.925Z,98921.00
2024-02-23T15:17:28.714Z,98918.66
2024-02-23T15:19:58.493Z,98933.06
2024-02-23T15:22:28.423Z,98935.53
2024-02-23T15:25:01.147Z,98939.53
2024-02-23T15:27:33.683Z,98942.22
2024-02-23T15:30:03.385Z,98933.13
2024-02-23T15:32:33.236Z,98939.03
2024-02-23T15:35:04.148Z,98943.28
2024-02-23T15:37:33.978Z,98935.22
2024-02-23T15:40:05.071Z,98935.22
2024-02-23T15:42:37.948Z,98938.91
2024-02-23T15:45:09.511Z,98942.19
2024-02-23T15:47:39.614Z,98943.56
2024-02-23T15:50:28.885Z,98933.38
2024-02-23T15:53:00.374Z,98943.28
2024-02-23T15:55:30.118Z,98945.97
2024-02-23T15:58:02.380Z,98952.44
2024-02-23T16:00:32.006Z,98940.41
2024-02-23T16:03:02.070Z,98942.00
2024-02-23T16:05:32.626Z,98943.34
2024-02-23T16:08:04.840Z,98955.94
2024-02-23T16:10:34.661Z,98952.44
2024-02-23T16:13:07.373Z,98951.34
2024-02-23T16:15:37.161Z,98953.50
2024-02-23T16:18:08.830Z,98958.88
2024-02-23T16:20:38.690Z,98953.50
2024-02-23T16:23:08.866Z,98954.06
2024-02-23T16:25:38.613Z,98954.59
2024-02-23T16:28:10.991Z,98957.78
2024-02-23T16:30:43.494Z,98965.56
2024-02-23T16:33:13.955Z,98962.41
2024-02-23T16:35:43.883Z,98967.19
2024-02-23T16:38:14.259Z,98960.28
2024-02-23T16:40:43.994Z,98973.41
2024-02-23T16:43:16.414Z,98973.38
2024-02-23T16:45:46.075Z,98979.81
2024-02-23T16:48:17.395Z,98973.88
2024-02-23T16:50:48.083Z,98986.19
2024-02-23T16:53:18.078Z,98984.34
2024-02-23T16:55:47.836Z,98991.31
2024-02-23T16:58:23.464Z,98992.09
2024-02-23T17:00:54.704Z,98999.09
2024-02-23T17:03:24.511Z,99004.47
2024-02-23T17:05:54.246Z,99006.59
2024-02-23T17:08:24.024Z,99009.28
2024-02-23T17:10:53.782Z,99017.31
2024-02-23T17:13:26.797Z,99018.09
2024-02-23T17:15:56.573Z,99022.41
2024-02-23T17:18:26.609Z,99025.06
2024-02-23T17:20:59.191Z,99033.94
2024-02-23T17:23:31.612Z,99036.06
2024-02-23T17:26:01.448Z,99034.72
2024-02-23T17:28:35.020Z,99038.19
2024-02-23T17:31:04.730Z,99039.28
2024-02-23T17:33:34.501Z,99041.97
2024-02-23T17:36:04.779Z,99042.50
2024-02-23T17:38:34.516Z,99045.44
2024-02-23T17:41:04.275Z,99053.22
2024-02-23T17:43:37.324Z,99055.88
2024-02-23T17:46:09.077Z,99064.47
2024-02-23T17:48:39.625Z,99059.91
2024-02-23T17:51:09.752Z,99062.56
2024-02-23T17:53:39.508Z,99069.00
2024-02-23T17:56:09.917Z,99072.75
2024-02-23T17:58:42.281Z,99068.47
2024-02-23T18:01:12.113Z,99068.75
2024-02-23T18:03:41.886Z,99076.78
2024-02-23T18:06:11.825Z,99064.72
2024-02-23T18:08:41.663Z,99075.19
2024-02-23T18:11:11.606Z,99076.78
2024-02-23T18:13:44.062Z,99075.19
2024-02-23T18:16:15.089Z,99084.81
2024-02-23T18:18:44.775Z,99085.88
2024-02-23T18:21:17.563Z,99090.44
2024-02-23T18:23:47.632Z,99084.56
2024-02-23T18:26:17.881Z,99091.25
2024-02-23T18:28:50.350Z,99086.41
2024-02-23T18:31:20.103Z,99083.72
2024-02-23T18:33:49.916Z,99088.28
2024-02-23T18:36:20.486Z,99090.16
2024-02-23T18:38:50.344Z,99086.94
2024-02-23T18:41:20.144Z,99090.69
2024-02-23T18:43:52.414Z,99092.28
2024-02-23T18:46:22.289Z,99088.25
2024-02-23T18:48:52.227Z,99089.06
2024-02-23T18:51:22.689Z,99077.31
2024-02-23T18:53:52.649Z,99090.69
2024-02-23T18:56:22.422Z,99079.44
2024-02-23T18:58:55.108Z,99088.81
2024-02-23T19:01:24.884Z,99095.22
2024-02-23T19:03:54.481Z,99093.91
2024-02-23T19:06:24.807Z,99090.94
2024-02-23T19:08:54.582Z,99089.59
2024-02-23T19:11:24.485Z,99087.47
2024-02-23T19:13:56.870Z,99090.41
2024-02-23T19:16:26.722Z,99085.88
2024-02-23T19:18:56.875Z,99088.81
2024-02-23T19:21:27.062Z,99088.53
2024-02-23T19:23:56.724Z,99095.50
2024-02-23T19:26:26.436Z,99098.72
2024-02-23T19:28:58.899Z,99107.00
2024-02-23T19:31:28.561Z,99115.84
2024-02-23T19:33:59.750Z,99114.50
2024-02-23T19:36:29.523Z,99115.31
2024-02-23T19:38:59.379Z,99108.06
2024-02-23T19:41:29.613Z,99105.41
2024-02-23T19:44:02.025Z,99112.34
2024-02-23T19:46:31.827Z,99115.84
2024-02-23T19:49:01.659Z,99113.69
2024-02-23T19:51:31.400Z,99123.63
2024-02-23T19:54:01.248Z,99122.00
2024-02-23T19:56:31.563Z,99116.66
2024-02-23T19:59:05.003Z,99112.66
2024-02-23T20:01:34.762Z,99117.69
2024-02-23T20:04:04.690Z,99107.81
2024-02-23T20:06:34.696Z,99112.34
2024-02-23T20:09:04.561Z,99117.97
2024-02-23T20:11:34.531Z,99117.16
2024-02-23T20:14:07.286Z,99120.09
2024-02-23T20:16:37.314Z,99115.28
2024-02-23T20:19:08.733Z,99120.38
2024-02-23T20:21:43.039Z,99120.13
2024-02-23T20:24:13.101Z,99129.22
2024-02-23T20:26:43.006Z,99128.66
2024-02-23T20:29:15.614Z,99125.97
2024-02-23T20:31:45.731Z,99125.19
2024-02-23T20:34:17.768Z,99131.34
2024-02-23T20:36:48.556Z,99124.97
2024-02-23T20:39:18.390Z,99136.69
2024-02-23T20:41:50.748Z,99134.00
2024-02-23T20:44:23.473Z,99137.50
2024-02-23T20:46:53.556Z,99146.06
2024-02-23T20:49:23.353Z,99138.56
2024-02-23T20:51:56.394Z,99144.72
2024-02-23T20:54:26.481Z,99138.84
2024-02-23T20:56:56.254Z,99144.19
2024-02-23T20:59:29.093Z,99146.59
2024-02-23T21:01:58.836Z,99158.66
2024-02-23T21:04:28.590Z,99169.34
2024-02-23T21:06:58.430Z,99160.00
2024-02-23T21:09:28.893Z,99170.66
2024-02-23T21:11:58.604Z,99167.19
2024-02-23T21:14:31.344Z,99173.91
2024-02-23T21:17:01.133Z,99176.03
2024-02-23T21:19:33.584Z,99163.72
2024-02-23T21:22:04.090Z,99169.59
2024-02-23T21:24:34.064Z,99162.66
2024-02-23T21:27:03.913Z,99169.34
2024-02-23T21:29:36.559Z,99173.63
2024-02-23T21:32:06.583Z,99171.44
2024-02-23T21:34:36.428Z,99176.31
2024-02-23T21:37:08.290Z,99171.22
2024-02-23T21:39:38.332Z,99168.78
2024-02-23T21:42:08.828Z,99166.44
2024-02-23T21:44:41.589Z,99165.03
2024-02-23T21:47:11.536Z,99167.13
2024-02-23T21:49:41.396Z,99170.09
2024-02-23T21:52:11.230Z,99162.06
2024-02-23T21:54:43.446Z,99160.72
2024-02-23T21:57:14.669Z,99155.97
2024-02-23T21:59:47.275Z,99148.47
2024-02-23T22:02:17.149Z,99156.50
2024-02-23T22:04:47.360Z,99167.41
2024-02-23T22:07:17.246Z,99166.03
2024-02-23T22:09:48.093Z,99164.59
2024-02-23T22:12:18.019Z,99164.09
2024-02-23T22:14:50.432Z,99165.41
2024-02-23T22:17:20.216Z,99168.38
2024-02-23T22:19:50.059Z,99165.66
2024-02-23T22:22:19.876Z,99160.31
2024-02-23T22:24:49.550Z,99175.13
2024-02-23T22:27:19.349Z,99167.53
2024-02-23T22:29:52.304Z,99162.69
2024-02-23T22:32:28.564Z,99162.94
2024-02-23T22:34:58.832Z,99162.00
2024-02-23T22:37:28.479Z,99166.78
2024-02-23T22:39:58.109Z,99166.84
2024-02-23T22:42:28.061Z,99169.59
2024-02-23T22:45:00.500Z,99168.16
2024-02-23T22:47:30.554Z,99175.16
2024-02-23T22:50:00.200Z,99177.22
2024-02-23T22:52:29.971Z,99177.75
2024-02-23T22:54:59.676Z,99173.97
2024-02-23T22:57:29.482Z,99169.19
2024-02-23T23:00:02.109Z,99172.66
2024-02-23T23:02:31.929Z,99176.56
2024-02-23T23:05:01.961Z,99177.09
2024-02-23T23:07:33.172Z,99183.16
2024-02-23T23:10:02.974Z,99197.34
2024-02-23T23:12:32.702Z,99197.00
2024-02-23T23:15:05.129Z,99193.31
2024-02-23T23:17:34.938Z,99196.50
2024-02-23T23:20:07.142Z,99202.31
2024-02-23T23:22:37.277Z,99201.19
2024-02-23T23:25:07.815Z,99201.28
2024-02-23T23:27:37.617Z,99199.03
2024-02-23T23:30:11.183Z,99198.59
2024-02-23T23:32:41.672Z,99210.53
2024-02-23T23:35:12.159Z,99215.66
2024-02-23T23:37:42.345Z,99217.25
2024-02-23T23:40:13.299Z,99213.59
2024-02-23T23:42:42.923Z,99216.56
2024-02-23T23:45:15.614Z,99216.72
2024-02-23T23:47:45.643Z,99217.38
2024-02-23T23:50:15.652Z,99213.09
2024-02-23T23:52:45.382Z,99209.31
2024-02-23T23:55:15.380Z,99215.72
2024-02-23T23:57:45.044Z,99220.59
